Decoded Metar for LFRL (LANVEDOC in FRANCE) (IATA:N/A) | Meteo·Mobile Aviation Weather
aviador You're here:

LFRL Decoded Metar

LANVEDOC in FRANCE
Report Time2019-07-16 09:30:00
UTC Time2019-07-16 10:03:11
Flight Rules vfr VFR
Wind010° at 04 kt
W.Decomp.*RWY 05: 3.2 kt HW 2.4 kt LCW
Visibility9999 m
Phenomena:N/A
Clouds:N/A
Expected CloudBase > 3,200 ft AGL from Temp-Dew spread
CeilingNone
Temp21°C (ISA +7)
Dew Point13°C (60% RH)
AAT20.5°C
QNH1019 hPa
Density Alt1,030 ft
Elevation269 ft
Report Wrong Elevation
Raw Report
METAR LFRL 160930Z AUTO 01004KT 310V090 CAVOK 21/13 Q1019 NOSIG=

Extra information for LFRL:More info

Metar Taf Metar & Taf Last 4 Metars F.Rules Stats Wind Profile Meteogram Temp Stats Airport Information Weather charts Add Link Nearby VenuesMetar ALERT Operation Metar Decoded Social comments